Plummer, Minnesota
Current Conditions -  °F | °C
As of 8:15 PM on Friday 28 Nov 2014 (Local Time) from KTVF Reporting Station
Overcast Overcast  
Wind Chill:   Ceiling: 10000
Heat Index: 16°   Visibility: 10mi
Dew Point: 10°   Wind: 14mph
Humidity: 79%   Direction: 140°SE
Pressure: 29.66"   Gusts: NA
Location:  47.91°N, 96.04°W
Report Text: KTVF 290215Z AUTO 14012KT 10SM OVC100 M09/M12 A2966 RMK AO1
Loading
Personal Weather Stations






























Interactive Weather Map New forecast layout! Learn more

10-Day Weather Forecast

Advertisements
Track Severe Weather on mobile